createdAt,value
2017-07-28T00:00:36.468Z,99.99
2017-07-28T00:01:17.009Z,99.99
2017-07-28T00:01:57.527Z,99.99
2017-07-28T00:02:38.032Z,99.99
2017-07-28T00:03:18.547Z,99.99
2017-07-28T00:03:59.109Z,99.99
2017-07-28T00:04:39.677Z,99.99
2017-07-28T00:05:20.215Z,99.99
2017-07-28T00:06:00.742Z,99.99
2017-07-28T00:06:41.280Z,99.99
2017-07-28T00:07:21.804Z,99.99
2017-07-28T00:08:02.345Z,99.99
2017-07-28T00:08:42.858Z,99.99
2017-07-28T00:09:23.376Z,99.99
2017-07-28T00:10:03.898Z,99.99
2017-07-28T00:10:44.417Z,99.99
2017-07-28T00:11:24.929Z,99.99
2017-07-28T00:12:05.455Z,99.99
2017-07-28T00:12:45.999Z,99.99
2017-07-28T00:13:26.532Z,99.99
2017-07-28T00:14:07.056Z,99.99
2017-07-28T00:14:47.573Z,99.99
2017-07-28T00:15:28.101Z,99.99
2017-07-28T00:16:08.638Z,99.99
2017-07-28T00:16:49.175Z,99.99
2017-07-28T00:17:29.679Z,99.99
2017-07-28T00:18:10.237Z,99.99
2017-07-28T00:18:50.732Z,99.99
2017-07-28T00:19:31.267Z,99.99
2017-07-28T00:20:11.798Z,99.99
2017-07-28T00:20:52.314Z,99.99
2017-07-28T00:21:32.818Z,99.99
2017-07-28T00:22:13.353Z,99.99
2017-07-28T00:22:53.892Z,99.99
2017-07-28T00:23:34.414Z,99.99
2017-07-28T00:24:14.935Z,99.99
2017-07-28T00:24:55.434Z,99.99
2017-07-28T00:25:35.942Z,99.99
2017-07-28T00:26:16.469Z,99.99
2017-07-28T00:26:56.979Z,99.99
2017-07-28T00:27:37.519Z,99.99
2017-07-28T00:28:18.056Z,99.99
2017-07-28T00:28:58.601Z,99.99
2017-07-28T00:29:39.120Z,99.99
2017-07-28T00:30:19.639Z,99.99
2017-07-28T00:31:00.170Z,99.99
2017-07-28T00:31:40.701Z,99.99
2017-07-28T00:32:21.236Z,99.99
2017-07-28T00:33:01.755Z,99.99
2017-07-28T00:33:42.310Z,99.99
2017-07-28T00:34:22.825Z,99.99
2017-07-28T00:35:03.362Z,99.99
2017-07-28T00:35:43.906Z,99.99
2017-07-28T00:36:24.426Z,99.99
2017-07-28T00:37:04.999Z,99.99
2017-07-28T00:37:45.530Z,99.99
2017-07-28T00:38:26.056Z,99.99
2017-07-28T00:39:06.572Z,99.99
2017-07-28T00:39:47.129Z,99.99
2017-07-28T00:40:27.660Z,99.99
2017-07-28T00:41:08.207Z,99.99
2017-07-28T00:41:48.721Z,99.99
2017-07-28T00:42:29.227Z,99.99
2017-07-28T00:43:09.747Z,99.99
2017-07-28T00:43:50.263Z,99.99
2017-07-28T00:44:30.783Z,99.99
2017-07-28T00:45:11.329Z,99.99
2017-07-28T00:45:51.866Z,99.99
2017-07-28T00:46:32.400Z,99.99
2017-07-28T00:47:12.960Z,99.99
2017-07-28T00:47:53.450Z,99.99
2017-07-28T00:48:33.974Z,99.99
2017-07-28T00:49:14.522Z,99.99
2017-07-28T00:49:55.048Z,99.99
2017-07-28T00:50:35.569Z,99.99
2017-07-28T00:51:16.095Z,99.99
2017-07-28T00:51:56.612Z,99.99
2017-07-28T00:52:37.138Z,99.99
2017-07-28T00:53:17.663Z,99.99
2017-07-28T00:53:58.181Z,99.99
2017-07-28T00:54:38.703Z,99.99
2017-07-28T00:55:19.197Z,99.99
2017-07-28T00:55:59.712Z,99.99
2017-07-28T00:56:40.240Z,99.99
2017-07-28T00:57:20.748Z,99.99
2017-07-28T00:58:01.287Z,99.99
2017-07-28T00:58:41.805Z,99.99
2017-07-28T00:59:22.309Z,99.99
2017-07-28T01:00:02.833Z,99.99
2017-07-28T01:00:43.365Z,99.99
2017-07-28T01:01:23.901Z,99.99
2017-07-28T01:02:04.442Z,99.99
2017-07-28T01:02:45.079Z,99.99
2017-07-28T01:03:25.584Z,99.99
2017-07-28T01:04:06.113Z,99.99
2017-07-28T01:04:46.655Z,99.99
2017-07-28T01:05:27.191Z,99.99
2017-07-28T01:06:07.720Z,99.99
2017-07-28T01:06:48.231Z,99.99
2017-07-28T01:07:28.764Z,99.99
2017-07-28T01:08:09.263Z,99.99
2017-07-28T01:08:49.777Z,99.99
2017-07-28T01:09:30.304Z,99.99
2017-07-28T01:10:10.838Z,99.99
2017-07-28T01:10:51.377Z,99.99
2017-07-28T01:11:31.913Z,99.99
2017-07-28T01:12:12.459Z,99.99
2017-07-28T01:12:52.984Z,99.99
2017-07-28T01:13:33.511Z,99.99
2017-07-28T01:14:14.052Z,99.99
2017-07-28T01:14:54.580Z,99.99
2017-07-28T01:15:35.125Z,99.99
2017-07-28T01:16:15.648Z,99.99
2017-07-28T01:16:56.167Z,99.99
2017-07-28T01:17:36.682Z,99.99
2017-07-28T01:18:17.207Z,99.99
2017-07-28T01:18:57.724Z,99.99
2017-07-28T01:19:38.257Z,99.99
2017-07-28T01:20:18.786Z,99.99
2017-07-28T01:20:59.331Z,99.99
2017-07-28T01:21:39.867Z,99.99
2017-07-28T01:22:20.402Z,99.99
2017-07-28T01:23:00.947Z,99.99
2017-07-28T01:23:41.468Z,99.99
2017-07-28T01:24:21.988Z,99.99
2017-07-28T01:25:02.509Z,99.99
2017-07-28T01:25:43.031Z,99.99
2017-07-28T01:26:23.545Z,99.99
2017-07-28T01:27:04.078Z,99.99
2017-07-28T01:27:44.594Z,99.99
2017-07-28T01:28:25.123Z,99.99
2017-07-28T01:29:05.671Z,99.99
2017-07-28T01:29:46.187Z,99.99
2017-07-28T01:30:26.714Z,99.99
2017-07-28T01:31:07.244Z,99.99
2017-07-28T01:31:47.845Z,99.99
2017-07-28T01:32:28.367Z,99.99
2017-07-28T01:33:08.897Z,99.99
2017-07-28T01:33:49.428Z,99.99
2017-07-28T01:34:29.974Z,99.99
2017-07-28T01:35:10.483Z,99.99
2017-07-28T01:35:51.026Z,99.99
2017-07-28T01:36:31.552Z,99.99
2017-07-28T01:37:12.075Z,99.99
2017-07-28T01:37:52.623Z,99.99
2017-07-28T01:38:33.164Z,99.99
2017-07-28T01:39:13.697Z,99.99
2017-07-28T01:39:54.236Z,99.99
2017-07-28T01:40:34.777Z,99.99
2017-07-28T01:41:15.330Z,99.99
2017-07-28T01:41:55.856Z,99.99
2017-07-28T01:42:36.377Z,99.99
2017-07-28T01:43:16.881Z,99.99
2017-07-28T01:43:57.392Z,99.99
2017-07-28T01:44:37.944Z,99.99
2017-07-28T01:45:18.488Z,99.99
2017-07-28T01:45:58.992Z,99.99
2017-07-28T01:46:39.533Z,99.99
2017-07-28T01:47:20.065Z,99.99
2017-07-28T01:48:00.607Z,99.99
2017-07-28T01:48:41.134Z,99.99
2017-07-28T01:49:21.657Z,99.99
2017-07-28T01:50:02.160Z,99.99
2017-07-28T01:50:42.701Z,99.99
2017-07-28T01:51:23.213Z,99.99
2017-07-28T01:52:03.728Z,99.99
2017-07-28T01:52:44.262Z,99.99
2017-07-28T01:53:24.802Z,99.99
2017-07-28T01:54:05.334Z,99.99
2017-07-28T01:54:45.858Z,99.99
2017-07-28T01:55:26.372Z,99.99
2017-07-28T01:56:06.885Z,99.99
2017-07-28T01:56:47.407Z,99.99
2017-07-28T01:57:27.909Z,99.99
2017-07-28T01:58:08.424Z,99.99
2017-07-28T01:58:48.952Z,99.99
2017-07-28T01:59:29.466Z,99.99
2017-07-28T02:00:10.003Z,99.99
2017-07-28T02:00:50.544Z,99.99
2017-07-28T02:01:31.065Z,99.99
2017-07-28T02:02:11.609Z,99.99
2017-07-28T02:02:52.151Z,99.99
2017-07-28T02:03:32.672Z,99.99
2017-07-28T02:04:13.240Z,99.99
2017-07-28T02:04:53.742Z,99.99
2017-07-28T02:05:34.281Z,99.99
2017-07-28T02:06:14.789Z,99.99
2017-07-28T02:06:55.292Z,99.99
2017-07-28T02:07:35.821Z,99.99
2017-07-28T02:08:16.341Z,99.99
2017-07-28T02:08:56.867Z,99.99
2017-07-28T02:09:37.386Z,99.99
2017-07-28T02:10:17.921Z,99.99
2017-07-28T02:10:58.392Z,99.99
2017-07-28T02:11:38.917Z,99.99
2017-07-28T02:12:19.442Z,99.99
2017-07-28T02:12:59.965Z,99.99
2017-07-28T02:13:40.488Z,99.99
2017-07-28T02:14:21.019Z,99.99
2017-07-28T02:15:01.551Z,99.99
2017-07-28T02:15:42.138Z,99.99
2017-07-28T02:16:22.647Z,99.99
2017-07-28T02:17:03.177Z,99.99
2017-07-28T02:17:43.713Z,99.99
2017-07-28T02:18:24.247Z,99.99
2017-07-28T02:19:04.785Z,99.99
2017-07-28T02:19:45.324Z,99.99
2017-07-28T02:20:25.860Z,99.99
2017-07-28T02:21:06.388Z,99.99
2017-07-28T02:21:46.911Z,99.99
2017-07-28T02:22:27.435Z,99.99
2017-07-28T02:23:07.969Z,99.99
2017-07-28T02:23:48.498Z,99.99
2017-07-28T02:24:29.023Z,99.99
2017-07-28T02:25:09.558Z,99.99
2017-07-28T02:25:50.058Z,99.99
2017-07-28T02:26:30.586Z,99.99
2017-07-28T02:27:11.123Z,99.99
2017-07-28T02:27:51.644Z,99.99
2017-07-28T02:28:32.172Z,99.99
2017-07-28T02:29:12.702Z,99.99
2017-07-28T02:29:53.232Z,99.99
2017-07-28T02:30:33.776Z,99.99
2017-07-28T02:31:14.307Z,99.99
2017-07-28T02:31:54.822Z,99.99
2017-07-28T02:32:37.287Z,99.99
2017-07-28T02:33:17.829Z,99.99
2017-07-28T02:33:58.366Z,99.99
2017-07-28T02:34:38.912Z,99.99
2017-07-28T02:35:19.426Z,99.99
2017-07-28T02:35:59.950Z,99.99
2017-07-28T02:36:40.476Z,99.99
2017-07-28T02:37:20.997Z,99.99
2017-07-28T02:38:01.525Z,99.99
2017-07-28T02:38:42.052Z,99.99
2017-07-28T02:39:22.569Z,99.99
2017-07-28T02:40:03.099Z,99.99
2017-07-28T02:40:43.612Z,99.99
2017-07-28T02:41:24.135Z,99.99
2017-07-28T02:42:04.662Z,99.99
2017-07-28T02:42:45.177Z,99.99
2017-07-28T02:43:25.707Z,99.99
2017-07-28T02:44:06.220Z,99.99
2017-07-28T02:44:46.749Z,99.99
2017-07-28T02:45:27.263Z,99.99
2017-07-28T02:46:07.779Z,99.99
2017-07-28T02:46:48.316Z,99.99
2017-07-28T02:47:28.882Z,99.99
2017-07-28T02:48:09.401Z,99.99
2017-07-28T02:48:49.933Z,99.99
2017-07-28T02:49:30.474Z,99.99
2017-07-28T02:50:10.992Z,99.99
2017-07-28T02:50:51.491Z,99.99
2017-07-28T02:51:32.032Z,99.99
2017-07-28T02:52:12.524Z,99.99
2017-07-28T02:52:53.050Z,99.99
2017-07-28T02:53:33.588Z,99.99
2017-07-28T02:54:14.107Z,99.99
2017-07-28T02:54:54.638Z,99.99
2017-07-28T02:55:35.169Z,99.99
2017-07-28T02:56:15.690Z,99.99
2017-07-28T02:56:56.206Z,99.99
2017-07-28T02:57:36.722Z,99.99
2017-07-28T02:58:17.257Z,99.99
2017-07-28T02:58:57.782Z,99.99
2017-07-28T02:59:38.339Z,99.99
2017-07-28T03:00:18.849Z,99.99
2017-07-28T03:00:59.372Z,99.99
2017-07-28T03:01:39.921Z,99.99
2017-07-28T03:02:20.433Z,99.99
2017-07-28T03:03:00.946Z,99.99
2017-07-28T03:03:41.459Z,99.99
2017-07-28T03:04:21.967Z,99.99
2017-07-28T03:05:02.487Z,99.99
2017-07-28T03:05:43.031Z,99.99
2017-07-28T03:06:23.567Z,99.99
2017-07-28T03:07:04.110Z,99.99
2017-07-28T03:07:44.635Z,99.99
2017-07-28T03:08:25.166Z,99.99
2017-07-28T03:09:05.731Z,99.99
2017-07-28T03:09:46.232Z,99.99
2017-07-28T03:10:26.776Z,99.99
2017-07-28T03:11:07.234Z,99.99
2017-07-28T03:11:47.819Z,99.99
2017-07-28T03:12:28.344Z,99.99
2017-07-28T03:13:08.928Z,99.99
2017-07-28T03:13:49.413Z,99.99
2017-07-28T03:14:29.979Z,99.99
2017-07-28T03:15:10.510Z,99.99
2017-07-28T03:15:51.076Z,99.99
2017-07-28T03:16:31.600Z,99.99
2017-07-28T03:17:12.175Z,99.99
2017-07-28T03:17:52.683Z,99.99
2017-07-28T03:18:33.222Z,99.99
2017-07-28T03:19:13.772Z,99.99
2017-07-28T03:19:54.297Z,99.99
2017-07-28T03:20:34.840Z,99.99
2017-07-28T03:21:15.359Z,99.99
2017-07-28T03:21:55.862Z,99.99
2017-07-28T03:22:36.403Z,99.99
2017-07-28T03:23:16.945Z,99.99
2017-07-28T03:23:57.492Z,99.99
2017-07-28T03:24:38.024Z,99.99
2017-07-28T03:25:18.567Z,99.99
2017-07-28T03:25:59.097Z,99.99
2017-07-28T03:26:39.631Z,99.99
2017-07-28T03:27:20.145Z,99.99
2017-07-28T03:28:00.644Z,99.99
2017-07-28T03:28:41.163Z,99.99
2017-07-28T03:29:21.706Z,99.99
2017-07-28T03:30:02.239Z,99.99
2017-07-28T03:30:42.764Z,99.99
2017-07-28T03:31:23.266Z,99.99
2017-07-28T03:32:03.820Z,99.99
2017-07-28T03:32:44.312Z,99.99
2017-07-28T03:33:24.839Z,99.99
2017-07-28T03:34:05.368Z,99.99
2017-07-28T03:34:45.891Z,99.99
2017-07-28T03:35:26.386Z,99.99
2017-07-28T03:36:06.920Z,99.99
2017-07-28T03:36:47.458Z,99.99
2017-07-28T03:37:27.989Z,99.99
2017-07-28T03:38:08.524Z,99.99
2017-07-28T03:38:49.048Z,99.99
2017-07-28T03:39:29.558Z,99.99
2017-07-28T03:40:10.107Z,99.99
2017-07-28T03:40:50.645Z,99.99
2017-07-28T03:41:31.163Z,99.99
2017-07-28T03:42:11.688Z,99.99
2017-07-28T03:42:52.226Z,99.99
2017-07-28T03:43:32.773Z,99.99
2017-07-28T03:44:13.300Z,99.99
2017-07-28T03:44:53.825Z,99.99
2017-07-28T03:45:34.366Z,99.99
2017-07-28T03:46:15.044Z,99.99
2017-07-28T03:46:55.559Z,99.99
2017-07-28T03:47:36.099Z,99.99
2017-07-28T03:48:16.624Z,99.99
2017-07-28T03:48:57.157Z,99.99
2017-07-28T03:49:37.668Z,99.99
2017-07-28T03:50:18.170Z,99.99
2017-07-28T03:50:58.691Z,99.99
2017-07-28T03:51:39.252Z,99.99
2017-07-28T03:52:19.810Z,99.99
2017-07-28T03:53:00.284Z,99.99
2017-07-28T03:53:40.830Z,99.99
2017-07-28T03:54:21.386Z,99.99
2017-07-28T03:55:01.953Z,99.99
2017-07-28T03:55:42.466Z,99.99
2017-07-28T03:56:23.006Z,99.99
2017-07-28T03:57:03.537Z,99.99
2017-07-28T03:57:44.028Z,99.99
2017-07-28T03:58:24.525Z,99.99
2017-07-28T03:59:05.080Z,99.99
2017-07-28T03:59:45.586Z,99.99
2017-07-28T04:00:26.131Z,99.99
2017-07-28T04:01:06.677Z,99.99
2017-07-28T04:01:47.209Z,99.99
2017-07-28T04:02:27.730Z,99.99
2017-07-28T04:03:08.294Z,99.99
2017-07-28T04:03:48.765Z,99.99
2017-07-28T04:04:29.312Z,99.99
2017-07-28T04:05:09.901Z,99.99
2017-07-28T04:05:50.435Z,99.99
2017-07-28T04:06:30.972Z,99.99
2017-07-28T04:07:11.511Z,99.99
2017-07-28T04:07:52.034Z,99.99
2017-07-28T04:08:32.573Z,99.99
2017-07-28T04:09:13.055Z,99.99
2017-07-28T04:09:53.673Z,99.99
2017-07-28T04:10:34.218Z,99.99
2017-07-28T04:11:14.755Z,99.99
2017-07-28T04:11:55.278Z,99.99
2017-07-28T04:12:35.814Z,99.99
2017-07-28T04:13:16.349Z,99.99
2017-07-28T04:13:56.859Z,99.99
2017-07-28T04:14:37.392Z,99.99
2017-07-28T04:15:17.930Z,99.99
2017-07-28T04:15:58.477Z,99.99
2017-07-28T04:16:39.005Z,99.99
2017-07-28T04:17:19.598Z,99.99
2017-07-28T04:18:00.046Z,99.99
2017-07-28T04:18:40.576Z,99.99
2017-07-28T04:19:21.125Z,99.99
2017-07-28T04:20:01.651Z,99.99
2017-07-28T04:20:42.188Z,99.99
2017-07-28T04:21:22.704Z,99.99
2017-07-28T04:22:05.058Z,99.99
2017-07-28T04:22:45.803Z,99.99
2017-07-28T04:23:26.870Z,99.99
2017-07-28T04:24:09.329Z,99.99
2017-07-28T04:24:49.919Z,99.99
2017-07-28T04:25:30.542Z,99.99
2017-07-28T04:26:11.191Z,99.99
2017-07-28T04:26:51.848Z,99.99
2017-07-28T04:27:32.609Z,99.99
2017-07-28T04:28:13.036Z,99.99
2017-07-28T04:28:54.253Z,99.99
2017-07-28T04:29:35.963Z,99.99
2017-07-28T04:30:20.424Z,99.99
2017-07-28T04:31:01.431Z,99.99
2017-07-28T04:31:42.690Z,99.99
2017-07-28T04:32:28.145Z,99.99
2017-07-28T04:33:10.233Z,99.99
2017-07-28T04:33:52.614Z,99.99
2017-07-28T04:34:33.775Z,99.99
2017-07-28T04:35:16.145Z,99.99
2017-07-28T04:35:56.854Z,99.99
2017-07-28T04:36:37.457Z,99.99
2017-07-28T04:37:20.610Z,99.99
2017-07-28T04:38:01.359Z,99.99
2017-07-28T04:38:41.867Z,99.99
2017-07-28T04:39:23.099Z,99.99
2017-07-28T04:40:05.390Z,99.99
2017-07-28T04:40:46.135Z,99.99
2017-07-28T04:41:28.892Z,99.99
2017-07-28T04:42:09.742Z,99.99
2017-07-28T04:42:50.174Z,99.99
2017-07-28T04:43:32.056Z,99.99
2017-07-28T04:44:22.994Z,99.99
2017-07-28T04:45:04.901Z,99.99
2017-07-28T04:45:51.150Z,99.99
2017-07-28T04:46:44.465Z,99.99
2017-07-28T04:47:27.826Z,99.99
2017-07-28T04:48:18.332Z,99.99
2017-07-28T04:49:12.139Z,99.99
2017-07-28T04:50:07.551Z,99.99
2017-07-28T04:51:06.684Z,99.99
2017-07-28T04:53:05.638Z,99.99
2017-07-28T04:53:47.734Z,99.99
2017-07-28T04:54:28.259Z,99.99
2017-07-28T04:55:09.048Z,99.99
2017-07-28T04:55:49.684Z,99.99
2017-07-28T04:56:30.279Z,99.99
2017-07-28T04:57:12.980Z,99.99
2017-07-28T04:57:53.875Z,99.99
2017-07-28T04:58:34.518Z,99.99
2017-07-28T04:59:15.089Z,99.99
2017-07-28T04:59:57.829Z,99.99
2017-07-28T05:00:38.441Z,99.99
2017-07-28T05:01:21.884Z,99.99
2017-07-28T05:02:06.040Z,99.99
2017-07-28T05:02:46.643Z,99.99
2017-07-28T05:03:34.345Z,99.99
2017-07-28T05:04:21.503Z,99.99
2017-07-28T05:05:02.138Z,99.99
2017-07-28T05:05:42.795Z,99.99
2017-07-28T05:06:25.802Z,99.99
2017-07-28T05:07:07.452Z,99.99
2017-07-28T05:07:48.122Z,99.99
2017-07-28T05:08:30.672Z,99.99
2017-07-28T05:09:11.395Z,99.99
2017-07-28T05:09:54.302Z,99.99
2017-07-28T05:10:38.467Z,99.99
2017-07-28T05:11:19.033Z,99.99
2017-07-28T05:11:59.761Z,99.99
2017-07-28T05:16:56.852Z,99.99
2017-07-28T05:19:17.256Z,99.99
2017-07-28T05:19:58.445Z,99.99
2017-07-28T05:20:38.962Z,99.99
2017-07-28T05:21:20.623Z,99.99
2017-07-28T05:22:01.109Z,99.99
2017-07-28T05:22:41.624Z,99.99
2017-07-28T05:23:22.196Z,99.99
2017-07-28T05:24:02.673Z,99.99
2017-07-28T05:24:43.267Z,99.99
2017-07-28T05:25:23.695Z,99.99
2017-07-28T05:26:04.248Z,99.99
2017-07-28T05:26:44.738Z,99.99
2017-07-28T05:27:25.221Z,99.99
2017-07-28T05:28:05.779Z,99.99
2017-07-28T05:28:46.251Z,99.99
2017-07-28T05:29:26.772Z,99.99
2017-07-28T05:30:07.338Z,99.99
2017-07-28T05:30:47.876Z,99.99
2017-07-28T05:31:28.444Z,99.99
2017-07-28T05:32:08.917Z,99.99
2017-07-28T05:32:49.531Z,99.99
2017-07-28T05:33:30.003Z,99.99
2017-07-28T05:34:10.516Z,99.99
2017-07-28T05:34:51.025Z,99.99
2017-07-28T05:35:31.526Z,99.99
2017-07-28T05:36:12.187Z,99.99
2017-07-28T05:36:52.626Z,99.99
2017-07-28T05:37:33.172Z,99.99
2017-07-28T05:38:13.702Z,99.99
2017-07-28T05:38:54.215Z,99.99
2017-07-28T05:39:34.697Z,99.99
2017-07-28T05:40:15.152Z,99.99
2017-07-28T05:40:55.682Z,99.99
2017-07-28T05:41:36.199Z,99.99
2017-07-28T05:42:16.761Z,99.99
2017-07-28T05:42:57.235Z,99.99
2017-07-28T05:43:37.781Z,99.99
2017-07-28T05:44:18.203Z,99.99
2017-07-28T05:44:58.683Z,99.99
2017-07-28T05:45:39.217Z,99.99
2017-07-28T05:46:19.772Z,99.99
2017-07-28T05:47:00.260Z,99.99
2017-07-28T05:47:40.785Z,99.99
2017-07-28T05:48:21.319Z,99.99
2017-07-28T05:49:01.900Z,99.99
2017-07-28T05:49:42.691Z,99.99
2017-07-28T05:50:23.135Z,99.99
2017-07-28T05:51:03.761Z,99.99
2017-07-28T05:51:44.203Z,99.99
2017-07-28T05:52:24.774Z,99.99
2017-07-28T05:53:05.326Z,99.99
2017-07-28T05:53:45.864Z,99.99
2017-07-28T05:54:26.404Z,99.99
2017-07-28T05:55:06.913Z,99.99
2017-07-28T05:55:47.401Z,99.99
2017-07-28T05:56:27.939Z,99.99
2017-07-28T05:57:08.473Z,99.99
2017-07-28T05:57:48.979Z,99.99
2017-07-28T05:58:29.509Z,99.99
2017-07-28T05:59:10.049Z,99.99
2017-07-28T05:59:50.628Z,99.99
2017-07-28T06:00:31.152Z,99.99
2017-07-28T06:01:11.786Z,99.99
2017-07-28T06:01:52.225Z,99.99
2017-07-28T06:02:32.726Z,99.99
2017-07-28T06:03:13.291Z,99.99
2017-07-28T06:03:53.816Z,99.99
2017-07-28T06:04:34.362Z,99.99
2017-07-28T06:05:14.845Z,99.99
2017-07-28T06:05:55.447Z,99.99
2017-07-28T06:06:36.238Z,99.99
2017-07-28T06:07:18.102Z,99.99
2017-07-28T06:07:58.738Z,99.99
2017-07-28T06:08:39.578Z,99.99
2017-07-28T06:09:20.083Z,99.99
2017-07-28T06:10:00.592Z,99.99
2017-07-28T06:10:41.193Z,99.99
2017-07-28T06:11:22.551Z,99.99
2017-07-28T06:12:03.270Z,99.99
2017-07-28T06:12:46.008Z,99.99
2017-07-28T06:13:29.907Z,99.99
2017-07-28T06:14:10.955Z,99.99
2017-07-28T06:14:56.569Z,99.99
2017-07-28T06:15:37.219Z,99.99
2017-07-28T06:16:23.749Z,99.99
2017-07-28T06:17:04.661Z,99.99
2017-07-28T06:17:45.882Z,99.99
2017-07-28T06:18:26.508Z,99.99
2017-07-28T06:19:08.090Z,99.99
2017-07-28T06:19:50.562Z,99.99
2017-07-28T06:21:52.941Z,99.99
2017-07-28T06:27:06.576Z,99.99
2017-07-28T06:27:50.884Z,99.99
2017-07-28T06:28:31.611Z,99.99
2017-07-28T06:29:15.839Z,99.99
2017-07-28T06:30:01.039Z,99.99
2017-07-28T06:30:44.001Z,99.99
2017-07-28T06:31:25.261Z,99.99
2017-07-28T06:32:16.139Z,99.99
2017-07-28T06:32:57.350Z,99.99
2017-07-28T06:33:37.931Z,99.99
2017-07-28T06:34:18.812Z,99.99
2017-07-28T06:34:59.590Z,99.99
2017-07-28T06:35:40.596Z,99.99
2017-07-28T06:36:25.506Z,99.99
2017-07-28T06:37:07.055Z,99.99
2017-07-28T06:37:53.501Z,99.99
2017-07-28T06:38:35.608Z,99.99
2017-07-28T06:39:16.453Z,99.99
2017-07-28T06:39:57.572Z,99.99
2017-07-28T06:40:42.862Z,99.99
2017-07-28T06:41:23.666Z,99.99
2017-07-28T06:42:13.842Z,99.99
2017-07-28T06:43:05.146Z,99.99
2017-07-28T06:44:04.262Z,99.99
2017-07-28T06:44:47.998Z,99.99
2017-07-28T06:45:34.262Z,99.99
2017-07-28T06:46:19.773Z,99.99
2017-07-28T06:47:00.472Z,99.99
2017-07-28T06:47:53.288Z,99.99
2017-07-28T06:48:34.339Z,99.99
2017-07-28T06:49:17.559Z,99.99
2017-07-28T06:50:04.856Z,99.99
2017-07-28T06:50:46.841Z,99.99
2017-07-28T06:51:28.288Z,99.99
2017-07-28T06:52:14.519Z,99.99
2017-07-28T06:53:02.742Z,99.99
2017-07-28T06:53:49.409Z,99.99
2017-07-28T06:54:30.787Z,99.99
2017-07-28T06:55:11.372Z,99.99
2017-07-28T06:55:52.157Z,99.99
2017-07-28T06:56:33.395Z,99.99
2017-07-28T06:57:14.266Z,99.99
2017-07-28T06:58:02.465Z,99.99
2017-07-28T06:58:45.186Z,99.99
2017-07-28T06:59:26.724Z,99.99
2017-07-28T07:00:07.206Z,99.99
2017-07-28T07:00:50.821Z,99.99
2017-07-28T07:01:36.135Z,99.99
2017-07-28T07:02:16.406Z,99.99
2017-07-28T07:02:58.703Z,99.99
2017-07-28T07:03:41.096Z,99.99
2017-07-28T07:04:21.713Z,99.99
2017-07-28T07:05:04.144Z,99.99
2017-07-28T07:05:46.598Z,99.99
2017-07-28T07:06:27.358Z,99.99
2017-07-28T07:07:11.330Z,99.99
2017-07-28T07:07:52.003Z,99.99
2017-07-28T07:08:32.597Z,99.82
2017-07-28T07:09:13.215Z,99.63
2017-07-28T07:09:53.752Z,99.63
2017-07-28T07:10:38.226Z,99.99
2017-07-28T07:11:19.029Z,99.91
2017-07-28T07:11:59.703Z,99.96
2017-07-28T07:12:41.467Z,98.91
2017-07-28T07:13:21.980Z,98.72
2017-07-28T07:14:02.545Z,98.24
2017-07-28T07:14:45.499Z,98.33
2017-07-28T07:15:26.049Z,98.53
2017-07-28T07:16:06.572Z,97.47
2017-07-28T07:16:47.161Z,96.61
2017-07-28T07:17:27.827Z,95.55
2017-07-28T07:18:08.428Z,95.84
2017-07-28T07:18:48.898Z,95.36
2017-07-28T07:19:29.903Z,95.36
2017-07-28T07:20:10.469Z,94.49
2017-07-28T07:22:09.617Z,94.12
2017-07-28T07:22:50.178Z,93.92
2017-07-28T07:23:32.710Z,94.02
2017-07-28T07:24:14.796Z,94.12
2017-07-28T07:24:55.797Z,94.12
2017-07-28T07:25:36.479Z,93.3
2017-07-28T07:26:17.111Z,93.3
2017-07-28T07:26:57.644Z,93.59
2017-07-28T07:27:38.186Z,93.3
2017-07-28T07:28:18.759Z,91.96
2017-07-28T07:28:59.460Z,91.57
2017-07-28T07:29:39.981Z,91.38
2017-07-28T07:30:20.617Z,90.7
2017-07-28T07:31:01.403Z,90.13
2017-07-28T07:31:42.584Z,89.75
2017-07-28T07:32:23.209Z,89.75
2017-07-28T07:33:03.974Z,89.94
2017-07-28T07:33:44.464Z,89.75
2017-07-28T07:34:26.889Z,89.94
2017-07-28T07:35:07.447Z,89.46
2017-07-28T07:35:48.113Z,88.88
2017-07-28T07:36:30.316Z,88.31
2017-07-28T07:37:10.782Z,88.31
2017-07-28T07:37:51.449Z,87.63
2017-07-28T07:38:32.582Z,87.54
2017-07-28T07:39:13.573Z,87.25
2017-07-28T07:39:54.091Z,87.54
2017-07-28T07:40:34.612Z,87.54
2017-07-28T07:41:15.187Z,87.92
2017-07-28T07:41:55.725Z,88.21
2017-07-28T07:42:36.221Z,88.25
2017-07-28T07:43:16.705Z,88.64
2017-07-28T07:43:57.447Z,88.64
2017-07-28T07:44:37.966Z,87.96
2017-07-28T07:45:18.476Z,87.1
2017-07-28T07:45:59.106Z,86.91
2017-07-28T07:46:39.740Z,86.43
2017-07-28T07:47:20.282Z,86.43
2017-07-28T07:48:00.767Z,85.57
2017-07-28T07:48:41.326Z,85.75
2017-07-28T07:49:21.854Z,85.33
2017-07-28T07:50:02.350Z,86.19
2017-07-28T07:50:42.913Z,86.58
2017-07-28T07:51:23.618Z,86.58
2017-07-28T07:52:04.230Z,86.48
2017-07-28T07:52:44.963Z,87.44
2017-07-28T07:53:25.644Z,86.96
2017-07-28T07:54:06.841Z,86.52
2017-07-28T07:54:47.483Z,86.24
2017-07-28T07:55:28.003Z,85.57
2017-07-28T07:56:08.536Z,85.51
2017-07-28T07:56:49.214Z,85.03
2017-07-28T07:57:30.024Z,84.45
2017-07-28T07:58:10.491Z,83.87
2017-07-28T07:58:51.101Z,84.78
2017-07-28T07:59:31.702Z,84.5
2017-07-28T08:00:12.245Z,84.26
2017-07-28T08:00:52.772Z,84.64
2017-07-28T08:01:33.260Z,85.22
2017-07-28T08:02:13.837Z,85.8
2017-07-28T08:02:56.300Z,86.09
2017-07-28T08:03:36.881Z,85.32
2017-07-28T08:04:17.555Z,83.78
2017-07-28T08:04:58.348Z,82.05
2017-07-28T08:05:39.034Z,81.48
2017-07-28T08:06:19.578Z,80.8
2017-07-28T08:07:00.090Z,80.42
2017-07-28T08:07:40.810Z,80.51
2017-07-28T08:08:21.410Z,79.55
2017-07-28T08:09:02.061Z,79.4
2017-07-28T08:09:42.596Z,79.02
2017-07-28T08:10:23.095Z,78.25
2017-07-28T08:11:03.595Z,78.34
2017-07-28T08:11:44.107Z,78.73
2017-07-28T08:12:24.634Z,78.44
2017-07-28T08:13:05.149Z,78.83
2017-07-28T08:13:45.631Z,79.02
2017-07-28T08:14:26.143Z,78.25
2017-07-28T08:15:06.679Z,76.94
2017-07-28T08:15:47.272Z,76.71
2017-07-28T08:16:27.945Z,76.81
2017-07-28T08:17:08.452Z,77.38
2017-07-28T08:17:49.261Z,76.52
2017-07-28T08:18:29.768Z,75.98
2017-07-28T08:19:10.276Z,75.69
2017-07-28T08:19:50.769Z,75.75
2017-07-28T08:20:31.420Z,75.56
2017-07-28T08:21:11.920Z,75.56
2017-07-28T08:21:52.436Z,76.32
2017-07-28T08:22:33.008Z,77.38
2017-07-28T08:23:13.524Z,77.25
2017-07-28T08:23:54.095Z,78.44
2017-07-28T08:24:34.665Z,76.23
2017-07-28T08:25:15.222Z,76.42
2017-07-28T08:25:55.742Z,76.52
2017-07-28T08:26:36.244Z,76.04
2017-07-28T08:27:16.720Z,76.04
2017-07-28T08:27:57.210Z,75.9
2017-07-28T08:28:37.811Z,75.42
2017-07-28T08:29:18.328Z,75.75
2017-07-28T08:29:59.157Z,74.98
2017-07-28T08:30:39.536Z,74.4
2017-07-28T08:31:19.986Z,74.4
2017-07-28T08:32:00.503Z,74.6
2017-07-28T08:32:41.330Z,74.79
2017-07-28T08:33:21.587Z,74.69
2017-07-28T08:34:02.157Z,74.5
2017-07-28T08:34:42.695Z,75.17
2017-07-28T08:35:23.175Z,74.92
2017-07-28T08:36:03.681Z,74.63
2017-07-28T08:36:44.270Z,74.73
2017-07-28T08:37:24.836Z,74.73
2017-07-28T08:38:05.352Z,74.73
2017-07-28T08:38:45.928Z,74.82
2017-07-28T08:39:26.399Z,73.86
2017-07-28T08:40:07.174Z,73.96
2017-07-28T08:40:47.713Z,74.44
2017-07-28T08:41:28.289Z,74.82
2017-07-28T08:42:08.792Z,75.02
2017-07-28T08:42:49.333Z,74.44
2017-07-28T08:43:29.896Z,74.05
2017-07-28T08:44:10.457Z,73.47
2017-07-28T08:44:50.998Z,73.96
2017-07-28T08:45:31.521Z,73.86
2017-07-28T08:46:12.256Z,73.96
2017-07-28T08:46:52.805Z,74.34
2017-07-28T08:47:33.322Z,74.38
2017-07-28T08:48:13.849Z,73.71
2017-07-28T08:48:54.384Z,73.71
2017-07-28T08:49:34.897Z,73.99
2017-07-28T08:50:15.426Z,73.74
2017-07-28T08:50:56.362Z,72.88
2017-07-28T08:51:36.894Z,72.45
2017-07-28T08:52:17.403Z,72.65
2017-07-28T08:52:58.080Z,72.45
2017-07-28T08:53:38.493Z,71.97
2017-07-28T08:54:19.064Z,70.92
2017-07-28T08:54:59.619Z,70.92
2017-07-28T08:55:40.158Z,70.62
2017-07-28T08:56:20.660Z,70.24
2017-07-28T08:57:01.213Z,70.43
2017-07-28T08:57:41.730Z,70.72
2017-07-28T08:58:22.265Z,70.53
2017-07-28T08:59:02.791Z,69.67
2017-07-28T08:59:43.309Z,69.12
2017-07-28T09:00:23.825Z,68.93
2017-07-28T09:01:04.356Z,68.58
2017-07-28T09:01:44.857Z,67.9
2017-07-28T09:02:25.396Z,67.33
2017-07-28T09:03:05.916Z,67.03
2017-07-28T09:03:46.430Z,67.13